Time;durP1;ratioP1;P1;durP2;ratioP2;P2;SDS_P1;SDS_P2;PMS_P1;PMS_P2;Temp;Humidity;BMP_temperature;BMP_pressure;BME280_temperature;BME280_humidity;BME280_pressure;Samples;Min_cycle;Max_cycle;Signal;HPM_P1;HPM_P2
2022/02/11 00:02:05;;;;;;;76.60;34.78;;;;;;;-1.33;83.30;98145.25;1716345;83;20981;-83
2022/02/11 00:07:03;;;;;;;74.03;33.90;;;;;;;-1.42;83.93;98122.52;1718194;83;20094;-83
2022/02/11 00:09:25;;;;;;;76.60;36.68;;;;;;;-1.47;84.35;98118.95;1713828;83;20974;-84
2022/02/11 00:11:55;;;;;;;67.87;33.13;;;;;;;-1.52;85.07;98131.87;1667579;84;21442;-84
2022/02/11 00:14:30;;;;;;;71.45;33.35;;;;;;;-1.57;83.97;98138.69;1697465;84;21049;-84
2022/02/11 00:16:51;;;;;;;72.05;34.75;;;;;;;-1.56;84.85;98139.55;1696927;84;21004;-85
2022/02/11 00:19:17;;;;;;;71.33;33.02;;;;;;;-1.62;84.83;98132.08;1698506;84;22186;-84
2022/02/11 00:21:45;;;;;;;72.70;35.30;;;;;;;-1.65;84.49;98137.23;1698587;84;20990;-83
2022/02/11 00:24:14;;;;;;;68.95;33.70;;;;;;;-1.63;84.52;98136.83;1698244;84;21479;-83
2022/02/11 00:26:45;;;;;;;70.83;32.95;;;;;;;-1.65;84.04;98134.63;1698405;84;21049;-83
2022/02/11 00:34:28;;;;;;;66.53;33.60;;;;;;;-1.64;84.14;98132.48;1686520;85;21044;-83
2022/02/11 01:06:11;;;;;;;60.38;30.60;;;;;;;-1.76;84.10;98143.89;1721702;83;21008;-84
2022/02/11 01:08:41;;;;;;;65.22;32.25;;;;;;;-1.78;84.41;98132.60;1722091;82;21513;-84
2022/02/11 01:11:17;;;;;;;60.03;30.45;;;;;;;-1.77;84.29;98127.86;1712264;83;21024;-84
2022/02/11 01:13:39;;;;;;;63.35;29.37;;;;;;;-1.78;84.23;98132.60;1721600;83;20988;-83
2022/02/11 01:16:11;;;;;;;62.27;29.55;;;;;;;-1.81;84.35;98131.22;1723796;83;21031;-84
2022/02/11 01:18:34;;;;;;;51.33;26.48;;;;;;;-1.82;84.40;98134.67;1713537;83;20984;-84
2022/02/11 01:21:06;;;;;;;51.70;27.40;;;;;;;-1.83;84.53;98137.68;1694378;85;21035;-84
2022/02/11 01:26:30;;;;;;;52.48;25.45;;;;;;;-1.80;84.32;98135.16;1723544;83;20977;-85
2022/02/11 01:31:34;;;;;;;51.98;25.02;;;;;;;-1.86;83.93;98138.48;1723594;83;21560;-84
2022/02/11 01:36:50;;;;;;;48.05;23.57;;;;;;;-1.83;84.05;98137.68;1684442;83;21036;-83
2022/02/11 01:39:44;;;;;;;49.03;22.00;;;;;;;-1.83;84.11;98133.78;1717153;83;21005;-83
2022/02/11 01:45:22;;;;;;;45.70;22.73;;;;;;;-1.89;83.95;98122.86;1723705;83;21007;-83
2022/02/11 01:47:21;;;;;;;51.28;22.48;;;;;;;-1.88;83.92;98128.50;1684551;83;21075;-83
2022/02/11 01:52:45;;;;;;;45.58;22.17;;;;;;;-1.93;85.27;98113.23;1686996;85;21084;-83
2022/02/11 02:00:38;;;;;;;48.45;22.35;;;;;;;-2.00;84.08;98113.52;1686687;85;21000;-83
2022/02/11 02:24:04;;;;;;;44.42;20.50;;;;;;;-2.13;84.49;98087.69;1678532;85;21009;-83
2022/02/11 02:50:17;;;;;;;35.70;16.27;;;;;;;-2.15;84.38;98084.17;1678664;85;21013;-82
2022/02/11 02:58:26;;;;;;;36.77;16.97;;;;;;;-2.19;84.48;98087.97;1678444;85;21052;-82
2022/02/11 04:23:05;;;;;;;30.37;15.50;;;;;;;-2.53;84.32;98090.22;1695977;85;21032;-82
2022/02/11 04:55:04;;;;;;;29.15;15.58;;;;;;;-2.65;84.39;98109.40;1726832;83;20992;-83
2022/02/11 05:00:14;;;;;;;34.50;15.58;;;;;;;-2.66;84.18;98106.35;1726629;83;21015;-82
2022/02/11 05:02:45;;;;;;;33.38;15.75;;;;;;;-2.65;84.29;98103.77;1726696;83;21009;-82
2022/02/11 05:05:14;;;;;;;39.95;17.50;;;;;;;-2.62;84.24;98109.45;1726558;83;21016;-82
2022/02/11 05:07:41;;;;;;;43.98;18.85;;;;;;;-2.57;84.30;98104.40;1726582;83;21020;-82
2022/02/11 05:10:10;;;;;;;32.15;15.63;;;;;;;-2.58;84.36;98102.20;1716753;83;21075;-82
2022/02/11 05:12:37;;;;;;;25.65;13.98;;;;;;;-2.56;84.18;98099.25;1688003;84;21075;-84
2022/02/11 05:15:09;;;;;;;61.98;21.77;;;;;;;-2.54;84.07;98103.16;1676544;84;21029;-84
2022/02/11 05:17:40;;;;;;;36.75;15.32;;;;;;;-2.56;84.41;98096.66;1672515;86;21069;-84
2022/02/11 05:20:10;;;;;;;30.50;13.70;;;;;;;-2.55;84.39;98107.89;1672405;85;21052;-84
2022/02/11 05:22:37;;;;;;;29.25;14.40;;;;;;;-2.58;84.42;98109.99;1672688;86;21006;-84
2022/02/11 05:25:06;;;;;;;30.12;13.38;;;;;;;-2.56;84.23;98108.73;1672152;86;21029;-84
2022/02/11 05:27:33;;;;;;;30.15;15.18;;;;;;;-2.54;84.33;98101.86;1672662;86;21072;-83
2022/02/11 05:30:01;;;;;;;27.48;14.43;;;;;;;-2.57;83.99;98109.59;1672699;86;21470;-84
2022/02/11 05:32:27;;;;;;;32.45;16.40;;;;;;;-2.59;84.18;98099.16;1682815;85;21465;-84
2022/02/11 05:34:54;;;;;;;27.05;14.15;;;;;;;-2.64;84.25;98103.36;1688364;84;20994;-84
2022/02/11 05:37:20;;;;;;;30.70;15.53;;;;;;;-2.65;84.26;98102.47;1688326;84;21374;-84
2022/02/11 05:39:46;;;;;;;29.48;15.03;;;;;;;-2.65;84.35;98106.80;1685711;84;21044;-84
2022/02/11 05:42:13;;;;;;;31.05;16.30;;;;;;;-2.67;84.50;98100.68;1688146;84;21115;-84
2022/02/11 05:44:39;;;;;;;31.62;15.93;;;;;;;-2.66;84.29;98102.02;1688144;84;21010;-84
2022/02/11 05:47:06;;;;;;;32.70;15.80;;;;;;;-2.66;84.32;98104.61;1688182;84;21060;-84
2022/02/11 05:49:33;;;;;;;32.75;15.72;;;;;;;-2.65;84.27;98106.80;1675196;85;21343;-84
2022/02/11 05:52:00;;;;;;;26.85;14.95;;;;;;;-2.67;84.32;98102.87;1672551;86;21021;-84
2022/02/11 05:54:26;;;;;;;29.00;15.28;;;;;;;-2.68;84.23;98109.31;1672309;85;21006;-84
2022/02/11 05:56:54;;;;;;;32.78;16.20;;;;;;;-2.68;84.26;98111.91;1672463;86;21033;-84
2022/02/11 05:59:20;;;;;;;31.12;16.52;;;;;;;-2.68;84.21;98115.39;1686309;84;21478;-84
2022/02/11 06:01:46;;;;;;;37.85;19.45;;;;;;;-2.68;84.89;98107.61;1701773;84;21076;-84
2022/02/11 06:04:13;;;;;;;37.08;17.95;;;;;;;-2.65;84.80;98105.50;1701968;84;21084;-84
2022/02/11 06:06:39;;;;;;;34.25;17.57;;;;;;;-2.66;84.43;98112.40;1702067;84;21399;-85
2022/02/11 06:09:06;;;;;;;35.17;18.40;;;;;;;-2.66;84.49;98120.19;1701287;84;21017;-83
2022/02/11 06:11:33;;;;;;;30.70;16.70;;;;;;;-2.66;84.53;98127.97;1723843;83;21079;-83
2022/02/11 06:14:00;;;;;;;34.10;16.73;;;;;;;-2.66;84.94;98125.37;1723230;83;21008;-83
2022/02/11 06:16:26;;;;;;;33.35;17.70;;;;;;;-2.65;85.00;98122.38;1700159;83;21418;-83
2022/02/11 06:18:56;;;;;;;34.50;17.48;;;;;;;-2.63;84.74;98131.06;1724679;83;21011;-83
2022/02/11 06:21:25;;;;;;;31.68;17.17;;;;;;;-2.65;85.46;98118.04;1723560;83;21021;-82
2022/02/11 06:23:55;;;;;;;34.70;17.27;;;;;;;-2.62;85.07;98128.06;1723427;83;21028;-83
2022/02/11 06:26:19;;;;;;;33.80;15.88;;;;;;;-2.58;85.76;98124.27;1723284;82;21080;-82
2022/02/11 06:28:49;;;;;;;32.83;16.25;;;;;;;-2.53;85.05;98123.95;1723234;83;21064;-83
2022/02/11 06:31:20;;;;;;;31.93;16.57;;;;;;;-2.48;84.93;98117.60;1723337;83;21040;-83
2022/02/11 06:33:47;;;;;;;30.35;15.13;;;;;;;-2.45;85.12;98121.55;1699026;83;21585;-82
2022/02/11 06:36:14;;;;;;;31.87;16.82;;;;;;;-2.40;85.19;98126.87;1692670;85;21029;-81
2022/02/11 06:38:41;;;;;;;31.55;15.13;;;;;;;-2.34;85.27;98127.02;1693284;85;21055;-83
2022/02/11 06:41:08;;;;;;;24.43;14.28;;;;;;;-2.31;86.00;98124.91;1693032;85;21438;-83
2022/02/11 06:43:35;;;;;;;29.18;14.70;;;;;;;-2.29;85.47;98129.30;1693072;85;21046;-83
2022/02/11 06:46:03;;;;;;;33.02;15.38;;;;;;;-2.21;85.14;98123.42;1693345;85;21028;-83
2022/02/11 06:48:31;;;;;;;31.62;16.07;;;;;;;-2.19;84.95;98118.72;1693268;85;21075;-83
2022/02/11 06:50:58;;;;;;;28.80;14.50;;;;;;;-2.17;85.15;98130.01;1708109;83;21458;-83
2022/02/11 06:53:27;;;;;;;35.98;15.75;;;;;;;-2.17;86.89;98120.92;1723524;83;21450;-82
2022/02/11 06:55:55;;;;;;;31.68;15.95;;;;;;;-2.12;85.53;98124.50;1723455;83;21167;-82
2022/02/11 06:58:22;;;;;;;30.50;15.40;;;;;;;-2.03;85.25;98117.33;1720056;83;21112;-82
2022/02/11 07:00:52;;;;;;;29.45;15.05;;;;;;;-1.95;85.54;98126.59;1698165;83;20953;-82
2022/02/11 07:03:24;;;;;;;30.12;15.30;;;;;;;-1.91;85.51;98121.92;1713100;83;21393;-82
2022/02/11 07:05:58;;;;;;;31.42;15.43;;;;;;;-1.82;85.52;98126.47;1726339;83;21063;-82
2022/02/11 07:08:25;;;;;;;34.50;15.70;;;;;;;-1.77;85.06;98126.15;1726502;83;21031;-82
2022/02/11 07:10:52;;;;;;;34.00;15.53;;;;;;;-1.71;86.07;98122.78;1724485;82;21039;-82
2022/02/11 07:13:20;;;;;;;32.73;16.82;;;;;;;-1.63;85.31;98117.75;1723630;83;21454;-83
2022/02/11 07:15:48;;;;;;;36.00;16.45;;;;;;;-1.56;85.18;98120.05;1714742;83;21410;-82
2022/02/11 07:18:16;;;;;;;29.98;16.45;;;;;;;-1.48;85.05;98118.50;1707334;83;20966;-82
2022/02/11 07:20:43;;;;;;;33.40;16.97;;;;;;;-1.40;84.89;98118.25;1717936;82;21033;-83
2022/02/11 07:23:12;;;;;;;28.17;16.27;;;;;;;-1.39;85.24;98106.99;1724340;83;21004;-84
2022/02/11 07:25:41;;;;;;;32.03;17.15;;;;;;;-1.30;85.04;98107.59;1723671;83;21003;-84
2022/02/11 07:28:09;;;;;;;32.25;16.75;;;;;;;-1.23;84.95;98112.08;1718274;83;21011;-84
2022/02/11 07:30:36;;;;;;;33.67;17.48;;;;;;;-1.16;84.71;98117.39;1721022;83;21000;-83
2022/02/11 07:33:03;;;;;;;33.25;16.60;;;;;;;-1.10;85.15;98117.09;1709553;83;21032;-83
2022/02/11 07:35:30;;;;;;;31.85;16.55;;;;;;;-1.05;84.74;98115.86;1707236;83;20946;-83
2022/02/11 07:37:57;;;;;;;32.05;16.45;;;;;;;-0.98;84.64;98111.24;1705212;83;20954;-82
2022/02/11 07:40:26;;;;;;;31.12;17.27;;;;;;;-0.90;84.43;98111.80;1694392;85;21029;-84
2022/02/11 07:42:52;;;;;;;34.90;17.45;;;;;;;-0.82;84.58;98102.41;1694408;85;21002;-83
2022/02/11 07:45:22;;;;;;;38.70;20.02;;;;;;;-0.72;84.68;98103.02;1710187;83;20996;-83
2022/02/11 07:47:49;;;;;;;39.27;18.40;;;;;;;-0.60;84.68;98107.56;1719658;83;20976;-85
2022/02/11 07:50:15;;;;;;;32.33;17.98;;;;;;;-0.52;84.45;98105.08;1723578;83;21012;-82
2022/02/11 07:52:42;;;;;;;32.58;18.30;;;;;;;-0.42;84.40;98104.79;1723665;83;21584;-78
2022/02/11 07:55:09;;;;;;;33.55;18.23;;;;;;;-0.33;84.21;98102.78;1703087;83;21049;-78
2022/02/11 07:57:36;;;;;;;40.70;20.37;;;;;;;-0.26;84.25;98103.31;1693210;85;21483;-82
2022/02/11 08:00:04;;;;;;;37.55;20.75;;;;;;;-0.17;84.22;98112.58;1716806;83;21019;-82
2022/02/11 08:02:36;;;;;;;42.58;23.60;;;;;;;-0.07;84.07;98097.98;1724664;83;21071;-82
2022/02/11 08:05:04;;;;;;;42.05;22.73;;;;;;;0.02;84.08;98114.16;1725939;83;21039;-81
2022/02/11 08:07:31;;;;;;;39.13;22.55;;;;;;;0.12;83.94;98125.58;1726276;83;21458;-81
2022/02/11 08:09:58;;;;;;;43.08;22.37;;;;;;;0.24;83.83;98123.57;1722978;83;20997;-81
2022/02/11 08:12:24;;;;;;;37.60;20.88;;;;;;;0.33;83.65;98121.09;1714541;83;21028;-78
2022/02/11 08:14:51;;;;;;;34.95;19.87;;;;;;;0.42;83.58;98119.06;1714595;83;21020;-81
2022/02/11 08:17:18;;;;;;;48.20;27.45;;;;;;;0.52;83.38;98122.23;1690303;83;20993;-81
2022/02/11 08:19:44;;;;;;;73.02;38.83;;;;;;;0.62;82.79;98124.95;1684647;85;20997;-81
2022/02/11 08:22:11;;;;;;;79.77;42.83;;;;;;;0.71;82.82;98124.19;1684516;85;21025;-81
2022/02/11 08:24:37;;;;;;;87.53;44.25;;;;;;;0.80;81.77;98126.91;1684632;85;21076;-81
2022/02/11 08:27:04;;;;;;;82.55;44.20;;;;;;;0.86;80.75;98132.19;1684561;85;21056;-81
2022/02/11 08:29:31;;;;;;;78.90;43.33;;;;;;;0.91;80.24;98130.50;1711506;84;20989;-82
2022/02/11 08:31:58;;;;;;;83.67;45.05;;;;;;;0.99;80.42;98146.25;1714578;84;21025;-82
2022/02/11 08:34:25;;;;;;;89.92;45.88;;;;;;;1.04;78.91;98145.87;1714607;84;21064;-82
2022/02/11 08:36:52;;;;;;;81.97;43.60;;;;;;;1.09;79.87;98147.66;1714577;84;21088;-82
2022/02/11 08:39:19;;;;;;;79.37;40.83;;;;;;;1.17;79.58;98157.31;1714638;83;21080;-79
2022/02/11 08:41:45;;;;;;;80.47;41.13;;;;;;;1.21;79.54;98150.41;1714517;83;21104;-80
2022/02/11 08:44:12;;;;;;;76.45;40.12;;;;;;;1.24;79.34;98147.81;1711304;84;21024;-80
2022/02/11 08:46:38;;;;;;;66.92;36.88;;;;;;;1.25;79.33;98148.70;1691420;84;21013;-80
2022/02/11 08:49:05;;;;;;;68.02;36.17;;;;;;;1.21;78.24;98151.72;1657612;84;21062;-79
2022/02/11 08:51:32;;;;;;;61.53;34.15;;;;;;;1.15;78.62;98157.73;1638353;87;21372;-82
2022/02/11 08:53:58;;;;;;;59.53;32.75;;;;;;;1.15;77.68;98162.08;1638500;88;21077;-82
2022/02/11 08:56:28;;;;;;;58.08;31.75;;;;;;;1.14;77.96;98159.91;1638400;88;21014;-82
2022/02/11 08:58:53;;;;;;;53.30;29.00;;;;;;;1.15;78.43;98164.69;1629284;86;21140;-82
2022/02/11 09:01:19;;;;;;;53.63;30.55;;;;;;;1.14;77.99;98166.44;1714697;83;21387;-82
2022/02/11 09:03:46;;;;;;;56.08;30.57;;;;;;;1.16;78.07;98169.07;1675353;86;21083;-82
2022/02/11 09:06:12;;;;;;;51.18;29.25;;;;;;;1.17;78.17;98171.67;1702004;84;21449;-82
2022/02/11 09:08:40;;;;;;;49.77;27.40;;;;;;;1.21;78.33;98168.69;1675325;86;20996;-82
2022/02/11 09:11:08;;;;;;;55.63;28.15;;;;;;;1.23;78.06;98168.68;1681390;84;21427;-82
2022/02/11 09:13:35;;;;;;;45.55;23.55;;;;;;;1.27;78.62;98167.45;1668952;86;21037;-82
2022/02/11 09:16:02;;;;;;;48.52;26.45;;;;;;;1.31;78.21;98173.56;1668953;85;21479;-82
2022/02/11 09:18:30;;;;;;;45.43;25.88;;;;;;;1.37;78.49;98163.17;1670146;84;21046;-82
2022/02/11 09:20:58;;;;;;;49.93;26.52;;;;;;;1.47;78.33;98168.49;1669009;86;20993;-81
2022/02/11 09:23:25;;;;;;;43.20;26.37;;;;;;;1.53;78.38;98166.82;1668866;86;21073;-81
2022/02/11 09:25:52;;;;;;;44.00;25.40;;;;;;;1.65;78.58;98167.78;1669039;86;21033;-81
2022/02/11 09:28:19;;;;;;;45.33;25.60;;;;;;;1.69;77.22;98169.15;1668940;86;21025;-82
2022/02/11 09:30:45;;;;;;;47.45;26.50;;;;;;;1.73;77.98;98162.20;1668833;86;21399;-81
2022/02/11 09:33:13;;;;;;;47.30;27.35;;;;;;;1.80;78.17;98164.45;1674215;85;21056;-82
2022/02/11 09:35:41;;;;;;;47.78;28.55;;;;;;;1.88;77.51;98163.20;1726501;83;20988;-82
2022/02/11 09:38:09;;;;;;;53.95;29.42;;;;;;;1.95;77.96;98167.62;1726458;83;21032;-82
2022/02/11 09:40:44;;;;;;;49.70;27.65;;;;;;;2.02;77.85;98165.91;1726606;83;20980;-82
2022/02/11 09:43:09;;;;;;;48.80;27.43;;;;;;;2.10;77.53;98165.54;1726510;83;20985;-82
2022/02/11 09:45:36;;;;;;;50.03;29.42;;;;;;;2.19;77.77;98166.03;1726524;83;20996;-82
2022/02/11 09:48:04;;;;;;;47.15;27.73;;;;;;;2.27;77.82;98163.46;1726515;83;21481;-82
2022/02/11 09:50:31;;;;;;;54.50;31.15;;;;;;;2.38;77.92;98168.35;1723097;83;21067;-82
2022/02/11 09:52:59;;;;;;;60.28;30.77;;;;;;;2.49;77.44;98165.36;1723943;83;21020;-82
2022/02/11 09:55:34;;;;;;;60.55;30.70;;;;;;;2.58;77.34;98156.67;1726486;83;21102;-82
2022/02/11 09:58:18;;;;;;;63.30;32.63;;;;;;;2.69;77.15;98155.42;1726457;83;21454;-81
2022/02/11 10:00:48;;;;;;;58.75;32.00;;;;;;;2.78;76.24;98157.20;1726341;83;21024;-81
2022/02/11 10:03:30;;;;;;;60.08;31.77;;;;;;;2.91;75.24;98155.53;1726449;83;21007;-82
2022/02/11 10:06:04;;;;;;;60.50;31.57;;;;;;;2.99;75.40;98148.56;1726413;83;21035;-81
2022/02/11 10:08:37;;;;;;;56.83;29.80;;;;;;;3.12;75.49;98146.00;1724385;83;21004;-81
2022/02/11 10:11:08;;;;;;;54.55;30.90;;;;;;;3.20;74.05;98142.94;1719710;83;21080;-81
2022/02/11 10:13:40;;;;;;;50.88;28.12;;;;;;;3.32;74.48;98145.17;1688011;84;20997;-81
2022/02/11 10:16:12;;;;;;;50.15;27.70;;;;;;;3.45;75.12;98140.82;1674001;85;21049;-81
2022/02/11 10:18:42;;;;;;;49.67;26.35;;;;;;;3.55;73.94;98144.77;1632931;86;21025;-81
2022/02/11 10:21:13;;;;;;;45.73;25.35;;;;;;;3.68;73.31;98145.66;1638409;87;21034;-81
2022/02/11 10:23:42;;;;;;;44.77;24.57;;;;;;;3.82;74.21;98126.44;1626045;88;21033;-80
2022/02/11 10:26:15;;;;;;;41.95;23.85;;;;;;;3.93;73.12;98122.48;1661535;86;21026;-81
2022/02/11 10:28:47;;;;;;;42.62;22.25;;;;;;;4.06;73.05;98122.02;1701992;84;21048;-80
2022/02/11 10:31:21;;;;;;;41.10;23.02;;;;;;;4.19;71.89;98114.58;1702123;84;21100;-81
2022/02/11 10:34:14;;;;;;;39.85;21.45;;;;;;;4.30;71.01;98109.74;1701877;84;21530;-81
2022/02/11 10:36:49;;;;;;;34.13;20.88;;;;;;;4.42;71.81;98108.84;1702185;84;21455;-81
2022/02/11 10:39:25;;;;;;;37.15;19.65;;;;;;;4.57;70.35;98111.41;1702015;84;21065;-81
2022/02/11 10:41:56;;;;;;;32.60;20.08;;;;;;;4.73;71.05;98108.72;1702037;84;21008;-82
2022/02/11 10:44:34;;;;;;;36.65;20.40;;;;;;;4.88;70.15;98099.91;1676180;84;21029;-81
2022/02/11 10:47:07;;;;;;;36.65;20.68;;;;;;;5.02;70.48;98098.52;1672498;86;20994;-81
2022/02/11 10:49:49;;;;;;;38.60;22.42;;;;;;;5.19;69.32;98102.36;1672418;85;21037;-81
2022/02/11 10:52:22;;;;;;;38.63;22.73;;;;;;;5.36;67.90;98094.83;1672437;85;21041;-81
2022/02/11 10:54:53;;;;;;;38.98;23.30;;;;;;;5.52;67.38;98085.94;1672387;86;21021;-81
2022/02/11 10:57:23;;;;;;;39.70;23.00;;;;;;;5.69;68.60;98077.03;1672247;85;21479;-82
2022/02/11 10:59:51;;;;;;;36.98;22.05;;;;;;;6.17;69.09;98077.06;1672371;85;21029;-81
2022/02/11 11:02:21;;;;;;;36.65;21.75;;;;;;;7.20;68.07;98070.52;1684980;84;21372;-81
2022/02/11 11:04:49;;;;;;;44.83;22.98;;;;;;;8.25;61.43;98064.37;1672484;86;21077;-79
2022/02/11 11:07:23;;;;;;;36.68;23.65;;;;;;;9.23;59.66;98063.72;1672441;86;20981;-79
2022/02/11 11:09:53;;;;;;;41.13;24.05;;;;;;;10.15;60.48;98057.48;1672450;86;21069;-79
2022/02/11 11:12:25;;;;;;;40.25;24.15;;;;;;;11.09;59.50;98048.64;1671911;86;21037;-82
2022/02/11 11:14:54;;;;;;;41.48;24.80;;;;;;;11.92;54.53;98043.81;1626026;87;21072;-82
2022/02/11 11:17:21;;;;;;;36.90;23.98;;;;;;;12.67;47.59;98039.42;1625948;88;21041;-80
2022/02/11 11:19:50;;;;;;;36.83;22.27;;;;;;;13.20;47.40;98039.59;1626212;88;21061;-79
2022/02/11 11:22:27;;;;;;;35.50;23.22;;;;;;;13.76;46.08;98028.52;1626007;88;21071;-79
2022/02/11 11:25:01;;;;;;;37.98;23.83;;;;;;;14.41;48.34;98029.32;1699815;84;21040;-79
2022/02/11 11:27:45;;;;;;;35.75;23.77;;;;;;;15.17;49.47;98019.20;1701808;84;21023;-80
2022/02/11 11:30:30;;;;;;;31.87;21.77;;;;;;;15.95;42.52;98019.44;1702019;84;21394;-79
2022/02/11 11:33:16;;;;;;;35.45;21.68;;;;;;;16.31;43.37;98025.14;1701574;84;21801;-79
2022/02/11 11:35:51;;;;;;;27.27;19.50;;;;;;;16.48;37.95;98026.92;1676641;84;21072;-81
2022/02/11 11:38:22;;;;;;;28.10;19.05;;;;;;;16.60;40.54;98027.20;1624867;88;21474;-81
2022/02/11 11:41:02;;;;;;;27.07;19.32;;;;;;;16.48;37.47;98024.25;1626000;87;21041;-81
2022/02/11 11:43:36;;;;;;;28.85;19.10;;;;;;;16.48;36.78;98024.25;1626141;88;21018;-81
2022/02/11 11:46:08;;;;;;;31.23;19.52;;;;;;;17.06;40.32;98024.34;1626131;88;21068;-80
2022/02/11 11:49:04;;;;;;;27.95;19.77;;;;;;;17.83;38.53;98023.09;1645676;86;21041;-80
2022/02/11 11:51:39;;;;;;;24.92;17.87;;;;;;;17.83;36.84;98014.17;1669715;85;21034;-80
2022/02/11 11:54:24;;;;;;;26.65;18.15;;;;;;;18.26;35.62;98017.00;1689915;85;21442;-81
2022/02/11 11:57:06;;;;;;;22.77;15.60;;;;;;;18.66;37.05;98006.97;1689900;85;21016;-81
2022/02/11 11:59:53;;;;;;;21.65;15.55;;;;;;;18.76;35.16;98001.87;1689765;85;21065;-80
2022/02/11 12:02:28;;;;;;;21.87;15.85;;;;;;;18.50;35.54;98015.11;1673367;86;21406;-81
2022/02/11 12:04:57;;;;;;;21.12;15.20;;;;;;;18.58;31.86;98011.95;1650200;86;21041;-81
2022/02/11 12:07:29;;;;;;;20.75;14.30;;;;;;;17.50;33.33;98007.56;1673506;85;21060;-81
2022/02/11 12:09:59;;;;;;;19.73;15.03;;;;;;;17.80;35.99;98003.16;1663837;84;21018;-80
2022/02/11 12:12:30;;;;;;;17.85;13.88;;;;;;;18.41;35.68;98015.20;1719517;83;21064;-81
2022/02/11 12:14:59;;;;;;;19.20;15.48;;;;;;;18.59;32.15;98008.30;1723579;83;21020;-80
2022/02/11 12:17:27;;;;;;;21.25;15.23;;;;;;;17.99;32.15;97992.68;1723643;83;21008;-81
2022/02/11 12:19:56;;;;;;;22.90;15.20;;;;;;;17.63;33.85;97993.42;1723573;83;21091;-81
2022/02/11 12:22:27;;;;;;;20.95;15.72;;;;;;;18.05;35.39;97997.20;1723662;83;21052;-81
2022/02/11 12:27:45;;;;;;;22.95;16.87;;;;;;;18.05;33.85;97981.58;1693303;85;21387;-80
2022/02/11 12:30:24;;;;;;;23.42;15.88;;;;;;;18.14;33.21;97988.25;1693483;85;21589;-80
2022/02/11 12:32:56;;;;;;;22.25;15.63;;;;;;;18.29;34.12;97991.34;1692849;85;21017;-81
2022/02/11 12:35:32;;;;;;;20.77;14.23;;;;;;;18.53;32.41;97980.51;1718243;83;21032;-81
2022/02/11 12:38:02;;;;;;;23.12;16.80;;;;;;;18.14;32.17;97986.41;1726417;83;21062;-81
2022/02/11 12:40:36;;;;;;;24.63;16.35;;;;;;;16.95;33.61;97988.76;1726433;83;21031;-82
2022/02/11 12:43:05;;;;;;;;;;;;;;;16.76;35.53;97987.09;1721655;83;21116;-82
2022/02/11 12:45:39;;;;;;;24.23;16.95;;;;;;;16.22;36.45;97993.53;1685926;85;20100;-82
2022/02/11 12:48:10;;;;;;;25.57;17.50;;;;;;;15.73;36.30;97983.07;1686556;85;21088;-82
2022/02/11 12:50:42;;;;;;;24.67;18.23;;;;;;;15.43;37.54;97980.55;1668594;85;20997;-82
2022/02/11 12:53:14;;;;;;;23.20;17.75;;;;;;;14.78;38.35;97979.19;1686572;85;21394;-82
2022/02/11 12:55:41;;;;;;;28.35;18.17;;;;;;;14.48;39.39;97976.09;1686501;85;20997;-81
2022/02/11 12:58:11;;;;;;;27.67;18.32;;;;;;;14.41;39.98;97973.33;1686719;85;21039;-79
2022/02/11 13:00:41;;;;;;;27.62;18.77;;;;;;;14.15;40.14;97972.23;1687854;83;21052;-81
2022/02/11 13:03:12;;;;;;;29.20;19.60;;;;;;;13.52;41.51;97977.14;1719510;83;21093;-82
2022/02/11 13:05:45;;;;;;;28.45;19.02;;;;;;;13.14;42.67;97971.11;1700816;83;21059;-81
2022/02/11 13:08:28;;;;;;;30.20;19.27;;;;;;;13.20;43.00;97969.52;1693149;85;21406;-81
2022/02/11 13:10:58;;;;;;;28.57;19.40;;;;;;;12.91;43.30;97963.12;1692233;85;21079;-81
2022/02/11 13:13:26;;;;;;;26.90;18.37;;;;;;;13.31;43.42;97960.66;1678607;85;21510;-81
2022/02/11 13:15:58;;;;;;;28.38;19.00;;;;;;;14.11;42.54;97959.52;1678517;85;21040;-80
2022/02/11 13:18:28;;;;;;;27.40;17.57;;;;;;;14.47;41.66;97949.92;1678645;85;21515;-81
2022/02/11 13:21:04;;;;;;;27.70;18.50;;;;;;;14.28;40.23;97957.87;1696010;85;21011;-81
2022/02/11 13:23:32;;;;;;;30.32;18.60;;;;;;;13.96;41.22;97962.38;1696280;84;21027;-81
2022/02/11 13:26:00;;;;;;;28.50;18.25;;;;;;;13.42;42.35;97958.86;1696604;84;21019;-81
2022/02/11 13:28:29;;;;;;;31.45;18.10;;;;;;;13.43;42.94;97959.28;1696516;85;21095;-81
2022/02/11 13:31:00;;;;;;;28.42;18.90;;;;;;;13.73;42.20;97954.95;1696404;85;20984;-81
2022/02/11 13:33:36;;;;;;;30.43;18.75;;;;;;;14.35;41.10;97951.34;1696390;84;22156;-80
2022/02/11 13:36:12;;;;;;;31.50;18.92;;;;;;;14.08;40.95;97955.64;1684782;83;21076;-80
2022/02/11 13:38:48;;;;;;;27.60;18.32;;;;;;;13.90;42.86;97954.66;1708355;84;21013;-81
2022/02/11 13:41:16;;;;;;;29.90;19.62;;;;;;;14.25;41.47;97955.38;1708385;84;21474;-81
2022/02/11 13:43:55;;;;;;;30.50;19.42;;;;;;;14.31;42.47;97952.42;1708286;84;21473;-81
2022/02/11 13:46:30;;;;;;;30.97;19.40;;;;;;;14.56;41.50;97954.41;1708413;83;21021;-81
2022/02/11 13:49:04;;;;;;;28.60;19.57;;;;;;;15.02;41.00;97952.73;1708387;84;21463;-80
2022/02/11 13:51:34;;;;;;;28.65;18.77;;;;;;;15.50;42.04;97950.40;1701512;84;21021;-81
2022/02/11 13:54:20;;;;;;;28.77;18.95;;;;;;;15.95;40.20;97953.46;1696625;84;21458;-81
2022/02/11 13:56:50;;;;;;;32.28;18.27;;;;;;;15.95;38.97;97955.30;1696800;83;20985;-81
2022/02/11 13:59:26;;;;;;;30.88;18.90;;;;;;;15.51;38.96;97956.58;1696346;84;21435;-81
2022/02/11 14:02:04;;;;;;;26.87;18.12;;;;;;;14.82;41.06;97952.38;1696793;83;20997;-81
2022/02/11 14:04:35;;;;;;;27.98;18.87;;;;;;;14.23;41.79;97956.77;1696604;83;21422;-81
2022/02/11 14:07:01;;;;;;;32.17;18.45;;;;;;;13.64;42.77;97959.33;1696751;84;21427;-81
2022/02/11 14:09:35;;;;;;;33.25;18.00;;;;;;;13.14;43.76;97964.01;1684389;83;21454;-82
2022/02/11 14:12:04;;;;;;;28.00;17.85;;;;;;;12.72;44.42;97971.42;1678935;84;21446;-82
2022/02/11 14:14:32;;;;;;;31.75;18.10;;;;;;;12.22;45.32;97979.92;1686812;85;20989;-81
2022/02/11 14:17:00;;;;;;;28.07;18.02;;;;;;;11.87;45.93;97981.09;1686690;85;21076;-82
2022/02/11 14:19:28;;;;;;;26.82;16.27;;;;;;;11.48;47.12;97978.44;1686576;85;21100;-80
2022/02/11 14:22:00;;;;;;;32.98;16.97;;;;;;;11.08;47.73;97971.32;1686631;85;21505;-81
2022/02/11 14:24:29;;;;;;;27.48;15.88;;;;;;;10.77;48.38;97976.27;1686683;85;21001;-81
2022/02/11 14:26:57;;;;;;;24.72;16.12;;;;;;;10.53;49.10;97974.77;1702625;83;20972;-82
2022/02/11 14:29:24;;;;;;;28.32;16.17;;;;;;;10.27;50.30;97974.17;1723708;83;21060;-82
2022/02/11 14:31:52;;;;;;;24.20;15.32;;;;;;;10.02;50.62;97987.63;1723659;83;21040;-81
2022/02/11 14:34:19;;;;;;;30.72;16.93;;;;;;;9.82;50.35;97985.54;1723572;83;21020;-81
2022/02/11 14:36:45;;;;;;;26.65;15.55;;;;;;;9.63;50.82;97995.28;1723726;83;20973;-80
2022/02/11 14:39:16;;;;;;;24.85;15.68;;;;;;;9.46;51.31;97989.53;1723620;83;21091;-81
2022/02/11 14:41:51;;;;;;;24.57;15.93;;;;;;;9.30;51.87;97991.24;1723726;83;20980;-81
2022/02/11 14:44:27;;;;;;;30.70;16.95;;;;;;;9.15;52.19;97996.91;1719086;83;21028;-81
2022/02/11 14:46:59;;;;;;;24.40;15.80;;;;;;;8.94;53.01;98001.80;1693313;85;21719;-81
2022/02/11 14:49:28;;;;;;;25.02;15.83;;;;;;;8.74;52.96;98001.80;1693357;85;21396;-81
2022/02/11 14:51:59;;;;;;;24.70;15.30;;;;;;;8.54;53.86;98003.09;1693350;85;21067;-81
2022/02/11 14:54:27;;;;;;;25.65;16.12;;;;;;;8.37;53.52;98008.70;1719439;83;21457;-81
2022/02/11 14:56:58;;;;;;;25.25;15.72;;;;;;;8.16;55.60;98004.27;1723697;83;21389;-81
2022/02/11 14:59:23;;;;;;;26.30;16.42;;;;;;;7.96;55.84;98007.72;1722909;83;21047;-81
2022/02/11 15:01:51;;;;;;;31.75;16.50;;;;;;;7.83;54.97;98004.44;1723479;83;20998;-82
2022/02/11 15:04:18;;;;;;;26.02;16.40;;;;;;;7.71;55.16;98002.45;1694773;83;21079;-81
2022/02/11 15:06:48;;;;;;;25.80;15.85;;;;;;;7.60;55.55;98007.06;1693178;85;21457;-81
2022/02/11 15:09:15;;;;;;;30.00;15.95;;;;;;;7.48;56.49;98017.38;1693218;85;21005;-81
2022/02/11 15:11:42;;;;;;;35.38;17.52;;;;;;;7.35;55.98;98014.92;1693097;85;21118;-82
2022/02/11 15:14:11;;;;;;;31.27;16.95;;;;;;;7.25;56.81;98017.28;1693111;85;21028;-82
2022/02/11 15:16:37;;;;;;;28.15;15.83;;;;;;;7.13;56.35;98012.64;1693212;85;21027;-81